createdAt,value
2016-11-24T00:03:16.712Z,281.6
2016-11-24T00:14:17.078Z,281.5
2016-11-24T00:25:17.508Z,281.3
2016-11-24T00:36:17.244Z,281.7
2016-11-24T00:47:17.242Z,282
2016-11-24T00:58:17.550Z,281.8
2016-11-24T01:09:18.230Z,282
2016-11-24T01:20:18.058Z,281.7
2016-11-24T01:31:16.826Z,282
2016-11-24T01:42:16.935Z,282.2
2016-11-24T01:53:16.538Z,282
2016-11-24T02:04:16.856Z,281.8
2016-11-24T02:15:16.949Z,282.3
2016-11-24T02:26:16.736Z,282.2
2016-11-24T02:37:17.560Z,282.1
2016-11-24T02:48:17.581Z,282.1
2016-11-24T02:59:17.030Z,282.2
2016-11-24T03:10:17.436Z,281.3
2016-11-24T03:21:17.454Z,282.3
2016-11-24T03:32:16.517Z,282
2016-11-24T03:43:16.844Z,282.1
2016-11-24T03:54:17.323Z,282.2
2016-11-24T04:05:17.559Z,282.3
2016-11-24T04:16:17.338Z,282.5
2016-11-24T04:27:17.152Z,282.3
2016-11-24T04:38:16.849Z,282
2016-11-24T04:49:17.243Z,282.1
2016-11-24T05:00:17.253Z,281.8
2016-11-24T05:11:16.546Z,281.6
2016-11-24T05:17:17.429Z,281.9
2016-11-24T05:23:16.664Z,281.9
2016-11-24T05:29:17.058Z,281.9
2016-11-24T05:35:17.228Z,282.1
2016-11-24T05:41:17.378Z,281.5
2016-11-24T05:47:17.009Z,281.9
2016-11-24T05:53:16.754Z,281.5
2016-11-24T05:59:17.519Z,281.7
2016-11-24T06:05:17.392Z,281.9
2016-11-24T06:11:16.647Z,281.8
2016-11-24T06:17:17.197Z,281.7
2016-11-24T06:23:16.991Z,281.8
2016-11-24T06:29:17.445Z,282
2016-11-24T06:35:17.745Z,281.8
2016-11-24T06:41:16.915Z,281.7
2016-11-24T06:47:17.507Z,281.2
2016-11-24T06:53:17.463Z,281.7
2016-11-24T06:59:17.431Z,281.6
2016-11-24T07:05:17.511Z,281.5
2016-11-24T07:11:17.113Z,281.8
2016-11-24T07:17:17.158Z,282
2016-11-24T07:23:17.668Z,281.7
2016-11-24T07:29:16.911Z,281.7
2016-11-24T07:35:17.470Z,281.8
2016-11-24T07:41:17.621Z,282.1
2016-11-24T07:47:16.830Z,281.9
2016-11-24T07:53:17.681Z,282
2016-11-24T07:59:17.050Z,281.9
2016-11-24T08:05:17.271Z,281.6
2016-11-24T08:11:17.734Z,281.6
2016-11-24T08:17:17.460Z,281.5
2016-11-24T08:23:17.183Z,281.4
2016-11-24T08:29:16.934Z,281.4
2016-11-24T08:35:17.230Z,281.3
2016-11-24T08:41:16.765Z,281.6
2016-11-24T08:47:17.104Z,281.7
2016-11-24T08:53:17.246Z,281.4
2016-11-24T08:59:17.434Z,281.1
2016-11-24T09:05:17.009Z,281.7
2016-11-24T09:11:17.871Z,281.3
2016-11-24T09:17:18.715Z,281.5
2016-11-24T09:23:17.292Z,281.7
2016-11-24T09:29:17.465Z,281.5
2016-11-24T09:35:17.463Z,281.4
2016-11-24T09:41:16.859Z,281.6
2016-11-24T09:47:17.204Z,281.3
2016-11-24T09:53:16.942Z,281
2016-11-24T09:59:17.667Z,281.4
2016-11-24T10:05:16.661Z,281.2
2016-11-24T10:11:16.802Z,281.3
2016-11-24T10:17:17.650Z,281.3
2016-11-24T10:23:17.790Z,281.9
2016-11-24T10:29:17.175Z,281.6
2016-11-24T10:35:17.741Z,281.6
2016-11-24T10:41:17.818Z,281.8
2016-11-24T10:47:16.697Z,281.9
2016-11-24T10:53:16.706Z,281.9
2016-11-24T10:59:16.859Z,281.7
2016-11-24T11:05:17.264Z,281.7
2016-11-24T11:11:17.125Z,281.9
2016-11-24T11:17:17.667Z,282.1
2016-11-24T11:28:16.835Z,281.8
2016-11-24T11:39:17.251Z,282
2016-11-24T11:50:16.925Z,282.5
2016-11-24T12:01:17.013Z,282.3
2016-11-24T12:12:16.683Z,282.5
2016-11-24T12:23:17.098Z,282.1
2016-11-24T12:34:16.892Z,282.7
2016-11-24T12:45:17.557Z,282.4
2016-11-24T12:56:17.425Z,282.7
2016-11-24T13:07:17.622Z,282.2
2016-11-24T13:18:17.558Z,282.7
2016-11-24T13:29:17.293Z,282.5
2016-11-24T13:40:17.092Z,281.8
2016-11-24T13:51:17.342Z,282.4
2016-11-24T14:02:17.035Z,282.1
2016-11-24T14:13:17.278Z,282
2016-11-24T14:24:17.301Z,281.9
2016-11-24T14:35:16.961Z,281.9
2016-11-24T14:46:17.030Z,281.9
2016-11-24T14:57:16.967Z,281.6
2016-11-24T15:08:17.417Z,281.6
2016-11-24T15:19:17.503Z,281.4
2016-11-24T15:30:17.412Z,281.4
2016-11-24T15:41:16.995Z,281.2
2016-11-24T15:52:17.091Z,281.2
2016-11-24T16:03:17.830Z,281.4
2016-11-24T16:14:17.390Z,280.8
2016-11-24T16:25:17.166Z,281.2
2016-11-24T16:36:17.375Z,281.4
2016-11-24T16:47:17.613Z,281.2
2016-11-24T16:58:17.203Z,280.4
2016-11-24T17:09:17.920Z,281
2016-11-24T17:20:17.439Z,281.1
2016-11-24T17:31:17.318Z,281
2016-11-24T17:42:16.877Z,280.6
2016-11-24T17:53:17.385Z,280.9
2016-11-24T18:04:17.245Z,280.2
2016-11-24T18:15:17.259Z,280.3
2016-11-24T18:26:18.547Z,280.5
2016-11-24T18:37:17.136Z,280.3
2016-11-24T18:48:17.485Z,280.1
2016-11-24T18:59:17.722Z,280.2
2016-11-24T19:10:17.503Z,280.2
2016-11-24T19:21:16.975Z,280
2016-11-24T19:32:17.536Z,280.6
2016-11-24T19:43:17.700Z,280.3
2016-11-24T19:54:16.610Z,279.7
2016-11-24T20:05:17.392Z,279.4
2016-11-24T20:16:17.425Z,280
2016-11-24T20:27:17.248Z,279.6
2016-11-24T20:38:17.318Z,280
2016-11-24T20:49:17.546Z,279.6
2016-11-24T21:00:17.825Z,280.1
2016-11-24T21:11:17.389Z,279.9
2016-11-24T21:22:16.873Z,279.6
2016-11-24T21:33:16.973Z,278.9
2016-11-24T21:44:16.670Z,278.5
2016-11-24T21:55:16.878Z,280.4
2016-11-24T22:06:17.159Z,279.6
2016-11-24T22:17:17.724Z,280.3
2016-11-24T22:28:17.687Z,280.3
2016-11-24T22:39:16.835Z,278.6
2016-11-24T22:50:17.653Z,279.2
2016-11-24T23:01:16.746Z,280
2016-11-24T23:12:16.935Z,280.4
2016-11-24T23:23:17.580Z,279.6
2016-11-24T23:34:17.373Z,279.5
2016-11-24T23:45:17.205Z,278.3
2016-11-24T23:56:17.369Z,279.4
